createdAt,value
2022-07-30T00:00:03.333Z,100
2022-07-30T00:02:29.410Z,100
2022-07-30T00:04:55.520Z,100
2022-07-30T00:07:21.595Z,100
2022-07-30T00:09:47.706Z,100
2022-07-30T00:12:13.789Z,100
2022-07-30T00:14:39.888Z,100
2022-07-30T00:17:04.999Z,100
2022-07-30T00:19:31.087Z,100
2022-07-30T00:21:57.198Z,100
2022-07-30T00:24:23.277Z,100
2022-07-30T00:26:49.391Z,100
2022-07-30T00:29:15.469Z,100
2022-07-30T00:31:41.573Z,100
2022-07-30T00:34:06.681Z,100
2022-07-30T00:36:31.794Z,100
2022-07-30T00:38:56.917Z,100
2022-07-30T00:41:22.038Z,100
2022-07-30T00:43:48.120Z,100
2022-07-30T00:46:14.218Z,100
2022-07-30T00:48:40.317Z,100
2022-07-30T00:51:06.949Z,100
2022-07-30T00:53:32.515Z,100
2022-07-30T00:55:58.617Z,100
2022-07-30T00:58:24.695Z,100
2022-07-30T01:00:50.802Z,100
2022-07-30T01:03:16.891Z,100
2022-07-30T01:05:42.995Z,100
2022-07-30T01:08:09.095Z,100
2022-07-30T01:10:35.171Z,100
2022-07-30T01:13:00.278Z,100
2022-07-30T01:15:26.386Z,100
2022-07-30T01:17:52.486Z,100
2022-07-30T01:20:18.578Z,100
2022-07-30T01:22:44.665Z,100
2022-07-30T01:25:09.781Z,100
2022-07-30T01:27:35.878Z,100
2022-07-30T01:30:01.008Z,100
2022-07-30T01:32:26.107Z,100
2022-07-30T01:34:52.200Z,100
2022-07-30T01:37:18.292Z,100
2022-07-30T01:39:44.396Z,100
2022-07-30T01:42:10.503Z,100
2022-07-30T01:44:36.587Z,100
2022-07-30T01:47:02.682Z,100
2022-07-30T01:49:28.774Z,100
2022-07-30T01:54:20.973Z,100
2022-07-30T01:56:47.072Z,100
2022-07-30T01:59:13.146Z,100
2022-07-30T02:01:39.258Z,100
2022-07-30T02:04:04.374Z,100
2022-07-30T02:06:30.449Z,100
2022-07-30T02:08:56.558Z,100
2022-07-30T02:11:22.654Z,100
2022-07-30T02:13:48.742Z,100
2022-07-30T02:16:14.854Z,100
2022-07-30T02:18:40.927Z,100
2022-07-30T02:21:07.033Z,100
2022-07-30T02:23:32.153Z,100
2022-07-30T02:25:57.273Z,100
2022-07-30T02:28:23.382Z,100
2022-07-30T02:33:15.553Z,100
2022-07-30T02:35:41.647Z,100
2022-07-30T02:38:07.736Z,100
2022-07-30T02:40:33.825Z,100
2022-07-30T02:42:59.933Z,100
2022-07-30T02:45:26.021Z,100
2022-07-30T02:47:52.120Z,100
2022-07-30T02:50:18.216Z,100
2022-07-30T02:52:44.306Z,100
2022-07-30T02:55:10.393Z,100
2022-07-30T02:57:35.501Z,100
2022-07-30T03:00:01.605Z,100
2022-07-30T03:02:27.697Z,100
2022-07-30T03:04:53.797Z,100
2022-07-30T03:07:19.893Z,100
2022-07-30T03:09:45.986Z,100
2022-07-30T03:12:12.075Z,100
2022-07-30T03:14:38.173Z,100
2022-07-30T03:17:03.303Z,100
2022-07-30T03:19:28.404Z,100
2022-07-30T03:21:53.514Z,100
2022-07-30T03:24:18.632Z,100
2022-07-30T03:26:43.755Z,100
2022-07-30T03:29:08.865Z,100
2022-07-30T03:31:33.995Z,100
2022-07-30T03:33:59.108Z,100
2022-07-30T03:36:25.185Z,100
2022-07-30T03:38:51.294Z,100
2022-07-30T03:41:17.397Z,100
2022-07-30T03:43:43.488Z,100
2022-07-30T03:46:09.576Z,100
2022-07-30T03:48:35.696Z,100
2022-07-30T03:51:01.757Z,100
2022-07-30T03:53:27.874Z,100
2022-07-30T03:55:53.954Z,100
2022-07-30T03:58:20.050Z,100
2022-07-30T04:00:46.148Z,100
2022-07-30T04:03:12.258Z,100
2022-07-30T04:05:37.353Z,100
2022-07-30T04:08:03.460Z,100
2022-07-30T04:10:29.548Z,100
2022-07-30T04:12:55.633Z,100
2022-07-30T04:15:21.737Z,100
2022-07-30T04:17:47.836Z,100
2022-07-30T04:20:13.927Z,100
2022-07-30T04:22:39.045Z,100
2022-07-30T04:25:04.159Z,100
2022-07-30T04:27:30.255Z,100
2022-07-30T04:29:56.362Z,100
2022-07-30T04:32:22.460Z,100
2022-07-30T04:34:48.550Z,100
2022-07-30T04:37:14.628Z,100
2022-07-30T04:39:40.735Z,100
2022-07-30T04:42:06.826Z,100
2022-07-30T04:44:32.935Z,100
2022-07-30T04:46:59.021Z,100
2022-07-30T04:49:25.116Z,100
2022-07-30T04:51:51.213Z,100
2022-07-30T04:54:17.318Z,100
2022-07-30T04:56:42.453Z,100
2022-07-30T04:59:08.519Z,100
2022-07-30T05:01:34.613Z,100
2022-07-30T05:04:00.707Z,100
2022-07-30T05:06:26.798Z,100
2022-07-30T05:08:52.895Z,100
2022-07-30T05:13:45.094Z,100
2022-07-30T05:16:10.196Z,100
2022-07-30T05:18:35.312Z,100
2022-07-30T05:21:00.450Z,100
2022-07-30T05:23:25.561Z,100
2022-07-30T05:25:50.676Z,100
2022-07-30T05:28:15.777Z,100
2022-07-30T05:30:41.865Z,100
2022-07-30T05:33:07.979Z,100
2022-07-30T05:35:34.069Z,100
2022-07-30T05:38:00.153Z,100
2022-07-30T05:40:26.251Z,100
2022-07-30T05:42:52.349Z,100
2022-07-30T05:45:18.462Z,100
2022-07-30T05:47:44.526Z,100
2022-07-30T05:50:10.639Z,99.9
2022-07-30T05:52:36.723Z,100
2022-07-30T05:55:02.830Z,99.8
2022-07-30T05:57:28.932Z,99.4
2022-07-30T05:59:54.026Z,98.6
2022-07-30T06:02:20.123Z,98.7
2022-07-30T06:04:46.223Z,98.3
2022-07-30T06:07:12.317Z,98.2
2022-07-30T06:09:38.416Z,97.5
2022-07-30T06:12:04.506Z,96.6
2022-07-30T06:14:30.599Z,96.8
2022-07-30T06:16:55.739Z,95.9
2022-07-30T06:19:20.838Z,94.7
2022-07-30T06:21:46.927Z,95
2022-07-30T06:24:13.029Z,94.6
2022-07-30T06:26:39.112Z,92.7
2022-07-30T06:29:05.223Z,89.8
2022-07-30T06:31:31.294Z,89.7
2022-07-30T06:33:57.435Z,89.6
2022-07-30T06:36:23.499Z,87.1
2022-07-30T06:38:49.583Z,87.2
2022-07-30T06:41:15.687Z,87.8
2022-07-30T06:43:41.796Z,87.2
2022-07-30T06:46:07.889Z,86.6
2022-07-30T06:48:33.977Z,85.1
2022-07-30T06:50:59.105Z,82
2022-07-30T06:53:25.168Z,81.4
2022-07-30T06:55:51.288Z,79.8
2022-07-30T06:58:17.373Z,77.5
2022-07-30T07:00:43.483Z,77.6
2022-07-30T07:03:09.564Z,77.2
2022-07-30T07:05:35.668Z,75.6
2022-07-30T07:08:00.789Z,75.7
2022-07-30T07:10:25.894Z,75.8
2022-07-30T07:12:51.016Z,74.8
2022-07-30T07:15:16.118Z,74.4
2022-07-30T07:17:42.215Z,75.3
2022-07-30T07:20:08.320Z,73.6
2022-07-30T07:22:34.418Z,72.5
2022-07-30T07:25:00.506Z,72.9
2022-07-30T07:27:26.615Z,72.9
2022-07-30T07:29:52.694Z,71.8
2022-07-30T07:32:18.805Z,71.3
2022-07-30T07:34:44.891Z,72.5
2022-07-30T07:37:10.979Z,70.9
2022-07-30T07:39:37.074Z,71.2
2022-07-30T07:42:03.168Z,71.7
2022-07-30T07:44:29.259Z,72.3
2022-07-30T07:46:54.389Z,70.3
2022-07-30T07:49:20.464Z,70.9
2022-07-30T07:51:46.571Z,69.3
2022-07-30T07:54:12.679Z,69.9
2022-07-30T07:56:38.760Z,67.7
2022-07-30T07:59:04.848Z,68.3
2022-07-30T08:01:30.957Z,66.6
2022-07-30T08:03:56.056Z,67
2022-07-30T08:06:21.179Z,67.8
2022-07-30T08:08:46.301Z,66.3
2022-07-30T08:11:11.409Z,65.1
2022-07-30T08:13:37.508Z,64.6
2022-07-30T08:16:03.605Z,65.5
2022-07-30T08:18:29.698Z,64.3
2022-07-30T08:20:55.794Z,63
2022-07-30T08:23:21.897Z,64.4
2022-07-30T08:25:47.983Z,62.4
2022-07-30T08:28:14.099Z,61.8
2022-07-30T08:30:40.179Z,62.2
2022-07-30T08:33:06.268Z,61.7
2022-07-30T08:35:32.368Z,62.2
2022-07-30T08:37:58.473Z,61.1
2022-07-30T08:40:24.565Z,59.9
2022-07-30T08:42:49.663Z,60.1
2022-07-30T08:45:15.785Z,58.3
2022-07-30T08:47:41.879Z,59.5
2022-07-30T08:50:07.981Z,59.3
2022-07-30T08:52:34.050Z,59.6
2022-07-30T08:55:00.145Z,58.9
2022-07-30T08:57:26.227Z,57.8
2022-07-30T08:59:51.350Z,58.5
2022-07-30T09:02:16.462Z,57.2
2022-07-30T09:04:42.557Z,57.3
2022-07-30T09:07:08.659Z,57.4
2022-07-30T09:09:34.761Z,58.8
2022-07-30T09:12:00.858Z,55.8
2022-07-30T09:14:26.943Z,55.7
2022-07-30T09:16:53.068Z,56.3
2022-07-30T09:19:19.141Z,55.4
2022-07-30T09:21:45.246Z,56.2
2022-07-30T09:24:11.317Z,56.1
2022-07-30T09:26:37.419Z,55
2022-07-30T09:29:03.530Z,55.8
2022-07-30T09:31:29.661Z,57
2022-07-30T09:33:54.732Z,54.9
2022-07-30T09:36:20.845Z,55.2
2022-07-30T09:38:46.915Z,55
2022-07-30T09:41:13.025Z,55
2022-07-30T09:43:39.113Z,54.5
2022-07-30T09:46:05.202Z,53.6
2022-07-30T09:48:31.301Z,54.5
2022-07-30T09:50:56.450Z,55.3
2022-07-30T09:53:21.522Z,55
2022-07-30T09:55:46.672Z,54.3
2022-07-30T09:58:11.781Z,52.9
2022-07-30T10:00:37.853Z,53.6
2022-07-30T10:03:03.980Z,51.9
2022-07-30T10:05:30.076Z,53.3
2022-07-30T10:07:56.178Z,53
2022-07-30T10:10:22.303Z,53.6
2022-07-30T10:12:48.354Z,53.1
2022-07-30T10:15:14.441Z,51.8
2022-07-30T10:20:06.647Z,49.6
2022-07-30T10:22:32.716Z,50.1
2022-07-30T10:24:58.816Z,50.1
2022-07-30T10:27:24.915Z,50.3
2022-07-30T10:29:50.027Z,48.6
2022-07-30T10:32:16.117Z,50.1
2022-07-30T10:34:42.287Z,50.3
2022-07-30T10:37:08.337Z,50
2022-07-30T10:39:34.402Z,48.9
2022-07-30T10:42:00.507Z,49.9
2022-07-30T10:44:26.588Z,48.9
2022-07-30T10:46:52.709Z,49.8
2022-07-30T10:49:18.097Z,49.9
2022-07-30T10:51:42.910Z,49.6
2022-07-30T10:54:08.064Z,49.3
2022-07-30T10:56:33.166Z,49.5
2022-07-30T10:58:59.255Z,48.9
2022-07-30T11:01:25.364Z,48.3
2022-07-30T11:03:51.436Z,47.6
2022-07-30T11:06:17.554Z,47.6
2022-07-30T11:08:43.643Z,48.2
2022-07-30T11:11:09.727Z,47.1
2022-07-30T11:13:35.839Z,48
2022-07-30T11:16:01.971Z,47.4
2022-07-30T11:18:28.017Z,47.7
2022-07-30T11:20:54.104Z,47.3
2022-07-30T11:23:20.202Z,47.9
2022-07-30T11:25:46.308Z,46.7
2022-07-30T11:28:11.402Z,45.8
2022-07-30T11:30:37.542Z,46.8
2022-07-30T11:33:03.604Z,46.4
2022-07-30T11:35:29.709Z,46.4
2022-07-30T11:37:55.810Z,45.4
2022-07-30T11:40:21.883Z,44.6
2022-07-30T11:42:47.977Z,45.9
2022-07-30T11:45:13.107Z,45.8
2022-07-30T11:47:38.213Z,44.4
2022-07-30T11:50:03.337Z,45.3
2022-07-30T11:52:28.452Z,46
2022-07-30T11:54:54.791Z,44.3
2022-07-30T11:57:20.642Z,45.2
2022-07-30T11:59:46.736Z,43.7
2022-07-30T12:02:12.841Z,45.4
2022-07-30T12:04:38.934Z,45.3
2022-07-30T12:07:05.028Z,46.1
2022-07-30T12:09:31.119Z,45.7
2022-07-30T12:11:57.225Z,46.3
2022-07-30T12:14:23.310Z,45
2022-07-30T12:16:49.411Z,45.2
2022-07-30T12:19:15.517Z,43.7
2022-07-30T12:21:41.600Z,42.2
2022-07-30T12:24:06.707Z,41.8
2022-07-30T12:26:32.817Z,43.1
2022-07-30T12:28:58.901Z,41.1
2022-07-30T12:31:24.999Z,42.3
2022-07-30T12:33:51.100Z,41.5
2022-07-30T12:36:17.188Z,41.2
2022-07-30T12:38:43.299Z,40.7
2022-07-30T12:41:08.412Z,41.8
2022-07-30T12:43:33.513Z,42.5
2022-07-30T12:45:58.643Z,41.4
2022-07-30T12:48:23.756Z,40.9
2022-07-30T12:50:49.863Z,41.6
2022-07-30T12:53:15.947Z,42.1
2022-07-30T12:55:42.060Z,41.8
2022-07-30T12:58:08.145Z,41.6
2022-07-30T13:00:34.243Z,41.8
2022-07-30T13:03:00.328Z,41.2
2022-07-30T13:05:26.427Z,40
2022-07-30T13:07:52.524Z,40.7
2022-07-30T13:10:18.625Z,38.7
2022-07-30T13:12:44.725Z,39.6
2022-07-30T13:15:10.805Z,38
2022-07-30T13:17:36.914Z,37
2022-07-30T13:20:02.027Z,36.1
2022-07-30T13:24:54.209Z,36.9
2022-07-30T13:27:20.308Z,38.5
2022-07-30T13:29:46.402Z,38.1
2022-07-30T13:32:12.498Z,37.1
2022-07-30T13:34:38.588Z,36.5
2022-07-30T13:37:04.712Z,36.3
2022-07-30T13:39:29.819Z,35.4
2022-07-30T13:41:54.917Z,36
2022-07-30T13:44:20.049Z,35.3
2022-07-30T13:46:45.162Z,35.3
2022-07-30T13:49:11.265Z,34.7
2022-07-30T13:51:36.381Z,35.7
2022-07-30T13:54:01.516Z,35.1
2022-07-30T13:56:27.593Z,34.6
2022-07-30T13:58:53.685Z,35.3
2022-07-30T14:01:19.779Z,35.3
2022-07-30T14:03:45.881Z,34.7
2022-07-30T14:06:11.962Z,34.8
2022-07-30T14:08:38.063Z,36.5
2022-07-30T14:11:04.170Z,36.3
2022-07-30T14:13:30.255Z,36.5
2022-07-30T14:15:56.363Z,35.1
2022-07-30T14:18:22.442Z,36.1
2022-07-30T14:20:48.549Z,37.1
2022-07-30T14:23:14.652Z,37
2022-07-30T14:25:39.775Z,35.1
2022-07-30T14:28:04.906Z,35.1
2022-07-30T14:30:30.987Z,34.9
2022-07-30T14:32:57.067Z,35.1
2022-07-30T14:35:22.206Z,34.9
2022-07-30T14:37:47.320Z,35.5
2022-07-30T14:40:13.406Z,36.1
2022-07-30T14:42:39.506Z,35.8
2022-07-30T14:45:05.587Z,36.3
2022-07-30T14:47:31.697Z,35.7
2022-07-30T14:49:57.786Z,35.1
2022-07-30T14:52:23.895Z,35.7
2022-07-30T14:54:49.992Z,36.6
2022-07-30T14:57:16.083Z,36.7
2022-07-30T14:59:42.174Z,35.5
2022-07-30T15:02:08.274Z,37.2
2022-07-30T15:04:34.389Z,38.8
2022-07-30T15:07:00.470Z,39.8
2022-07-30T15:09:25.571Z,40.1
2022-07-30T15:11:51.677Z,39.1
2022-07-30T15:14:17.767Z,39.7
2022-07-30T15:16:43.862Z,40.5
2022-07-30T15:19:09.969Z,40.4
2022-07-30T15:21:36.052Z,40.8
2022-07-30T15:24:02.153Z,41.3
2022-07-30T15:26:27.285Z,41.8
2022-07-30T15:28:52.397Z,41.7
2022-07-30T15:31:17.504Z,42.3
2022-07-30T15:33:42.612Z,39.3
2022-07-30T15:36:08.708Z,40.5
2022-07-30T15:38:34.806Z,39.3
2022-07-30T15:41:00.901Z,37.9
2022-07-30T15:43:27.014Z,37.6
2022-07-30T15:45:53.104Z,36.8
2022-07-30T15:48:19.213Z,35.9
2022-07-30T15:50:45.304Z,36.6
2022-07-30T15:53:11.387Z,37.9
2022-07-30T15:55:37.501Z,37.9
2022-07-30T15:58:03.585Z,37.8
2022-07-30T16:00:29.695Z,39.3
2022-07-30T16:02:55.794Z,37.9
2022-07-30T16:05:20.896Z,38.7
2022-07-30T16:07:46.979Z,37.8
2022-07-30T16:10:13.069Z,36.2
2022-07-30T16:12:39.177Z,36
2022-07-30T16:15:05.270Z,36.3
2022-07-30T16:17:31.367Z,39.5
2022-07-30T16:19:57.461Z,39.6
2022-07-30T16:22:22.581Z,39.3
2022-07-30T16:24:47.707Z,40.2
2022-07-30T16:27:13.801Z,40.5
2022-07-30T16:29:39.917Z,40.6
2022-07-30T16:32:05.977Z,40
2022-07-30T16:34:32.074Z,39.9
2022-07-30T16:36:58.183Z,40.4
2022-07-30T16:39:24.263Z,37.9
2022-07-30T16:41:50.367Z,36.4
2022-07-30T16:44:16.472Z,35.4
2022-07-30T16:46:42.549Z,35.9
2022-07-30T16:49:08.655Z,35.8
2022-07-30T16:51:34.751Z,36.3
2022-07-30T16:54:00.854Z,35.9
2022-07-30T16:56:25.993Z,36.7
2022-07-30T16:58:52.064Z,36.9
2022-07-30T17:01:18.148Z,36.7
2022-07-30T17:03:44.244Z,35.3
2022-07-30T17:06:10.346Z,36.3
2022-07-30T17:08:36.441Z,35.1
2022-07-30T17:11:02.539Z,36.2
2022-07-30T17:13:27.658Z,36
2022-07-30T17:15:52.803Z,36.6
2022-07-30T17:18:17.902Z,37.4
2022-07-30T17:20:43.006Z,37.1
2022-07-30T17:23:09.150Z,36.1
2022-07-30T17:25:35.194Z,35.8
2022-07-30T17:28:01.295Z,37.7
2022-07-30T17:30:27.397Z,38.5
2022-07-30T17:32:53.507Z,39.5
2022-07-30T17:35:19.569Z,39.6
2022-07-30T17:37:45.702Z,41.1
2022-07-30T17:40:11.786Z,41
2022-07-30T17:42:36.882Z,41.8
2022-07-30T17:45:02.977Z,42.9
2022-07-30T17:47:29.080Z,43
2022-07-30T17:49:55.185Z,42.9
2022-07-30T17:52:21.280Z,43.7
2022-07-30T17:54:47.378Z,43.2
2022-07-30T17:57:13.497Z,43.9
2022-07-30T17:59:39.561Z,44.7
2022-07-30T18:02:05.661Z,44.8
2022-07-30T18:04:31.753Z,47.4
2022-07-30T18:06:57.854Z,49.4
2022-07-30T18:09:22.999Z,50.3
2022-07-30T18:11:48.078Z,51.7
2022-07-30T18:14:14.184Z,53.1
2022-07-30T18:16:40.280Z,53.7
2022-07-30T18:19:06.376Z,54.8
2022-07-30T18:21:32.467Z,56.2
2022-07-30T18:23:58.564Z,55.4
2022-07-30T18:26:24.655Z,56.1
2022-07-30T18:28:50.778Z,56.7
2022-07-30T18:31:16.829Z,57.7
2022-07-30T18:33:42.935Z,58.6
2022-07-30T18:38:35.128Z,60
2022-07-30T18:41:01.219Z,59.8
2022-07-30T18:43:26.343Z,59.9
2022-07-30T18:45:52.434Z,60.7
2022-07-30T18:48:18.530Z,59.6
2022-07-30T18:50:44.620Z,59.5
2022-07-30T18:53:10.715Z,61.2
2022-07-30T18:55:36.810Z,61.7
2022-07-30T18:58:02.925Z,63
2022-07-30T19:00:29.009Z,61.3
2022-07-30T19:02:54.172Z,61.7
2022-07-30T19:05:19.251Z,62.7
2022-07-30T19:07:45.338Z,63.5
2022-07-30T19:10:10.454Z,63.8
2022-07-30T19:12:35.573Z,64.3
2022-07-30T19:15:00.679Z,63.7
2022-07-30T19:17:25.811Z,64.5
2022-07-30T19:19:50.911Z,65.4
2022-07-30T19:22:16.032Z,65.7
2022-07-30T19:24:42.134Z,66.2
2022-07-30T19:27:08.233Z,65
2022-07-30T19:29:34.324Z,66.4
2022-07-30T19:32:00.435Z,67
2022-07-30T19:34:26.525Z,66
2022-07-30T19:36:52.602Z,67.6
2022-07-30T19:39:18.691Z,67.5
2022-07-30T19:41:44.792Z,67.8
2022-07-30T19:44:10.912Z,67
2022-07-30T19:46:37.021Z,67.3
2022-07-30T19:49:03.083Z,67.5
2022-07-30T19:51:29.176Z,67.4
2022-07-30T19:53:54.302Z,68.3
2022-07-30T19:56:20.402Z,68.2
2022-07-30T19:58:46.478Z,69.3
2022-07-30T20:01:12.570Z,69.8
2022-07-30T20:03:38.689Z,70.1
2022-07-30T20:06:04.761Z,70.7
2022-07-30T20:08:30.902Z,69
2022-07-30T20:10:55.980Z,70
2022-07-30T20:13:21.107Z,69.7
2022-07-30T20:15:46.253Z,70.3
2022-07-30T20:18:11.333Z,70.2
2022-07-30T20:20:36.473Z,70.9
2022-07-30T20:23:01.582Z,71.9
2022-07-30T20:25:27.652Z,72.3
2022-07-30T20:27:53.764Z,72
2022-07-30T20:30:19.859Z,72.6
2022-07-30T20:32:45.969Z,73.8
2022-07-30T20:35:12.030Z,73.7
2022-07-30T20:37:38.118Z,73.6
2022-07-30T20:40:04.221Z,73.4
2022-07-30T20:42:30.348Z,74.1
2022-07-30T20:44:56.444Z,73.5
2022-07-30T20:47:22.508Z,74.7
2022-07-30T20:49:48.609Z,74.3
2022-07-30T20:52:14.728Z,74.8
2022-07-30T20:54:39.808Z,75
2022-07-30T20:57:06.375Z,75.1
2022-07-30T20:59:32.005Z,75.3
2022-07-30T21:01:58.085Z,74.8
2022-07-30T21:04:24.182Z,74.4
2022-07-30T21:06:50.286Z,74.9
2022-07-30T21:09:16.386Z,74.9
2022-07-30T21:11:41.502Z,75.1
2022-07-30T21:14:06.637Z,76
2022-07-30T21:16:32.714Z,76.3
2022-07-30T21:18:58.805Z,76.3
2022-07-30T21:21:24.890Z,75.3
2022-07-30T21:23:50.990Z,76.4
2022-07-30T21:26:17.103Z,77.1
2022-07-30T21:28:43.197Z,76.8
2022-07-30T21:31:09.279Z,76.2
2022-07-30T21:33:35.390Z,76.6
2022-07-30T21:36:01.462Z,77.2
2022-07-30T21:38:27.562Z,76.9
2022-07-30T21:40:53.655Z,77
2022-07-30T21:43:19.748Z,77.8
2022-07-30T21:45:44.899Z,77.7
2022-07-30T21:48:10.958Z,78
2022-07-30T21:50:37.062Z,78.6
2022-07-30T21:53:03.155Z,77.4
2022-07-30T21:55:29.250Z,78.1
2022-07-30T21:57:55.348Z,79.1
2022-07-30T22:00:21.451Z,79.8
2022-07-30T22:02:46.572Z,79.1
2022-07-30T22:05:11.700Z,78.4
2022-07-30T22:07:37.769Z,78.3
2022-07-30T22:10:03.864Z,78.9
2022-07-30T22:12:29.969Z,79
2022-07-30T22:14:56.084Z,78.8
2022-07-30T22:17:22.147Z,79
2022-07-30T22:19:48.264Z,79.4
2022-07-30T22:22:14.338Z,80.2
2022-07-30T22:24:40.439Z,80.5
2022-07-30T22:27:06.523Z,79.8
2022-07-30T22:29:32.622Z,80.6
2022-07-30T22:31:58.744Z,81.1
2022-07-30T22:34:24.866Z,81.7
2022-07-30T22:36:49.962Z,81.1
2022-07-30T22:39:16.052Z,82
2022-07-30T22:41:42.131Z,81.8
2022-07-30T22:44:08.226Z,82.1
2022-07-30T22:46:34.326Z,82.1
2022-07-30T22:49:00.419Z,82.4
2022-07-30T22:51:26.522Z,82.4
2022-07-30T22:53:51.646Z,83
2022-07-30T22:56:16.764Z,83.2
2022-07-30T22:58:42.842Z,83.7
2022-07-30T23:01:08.928Z,84
2022-07-30T23:03:35.055Z,84.3
2022-07-30T23:06:01.126Z,84.1
2022-07-30T23:08:28.202Z,84.4
2022-07-30T23:10:53.299Z,85
2022-07-30T23:13:19.401Z,85.3
2022-07-30T23:15:45.503Z,84.8
2022-07-30T23:18:11.594Z,85
2022-07-30T23:20:37.672Z,85.4
2022-07-30T23:23:03.778Z,85.6
2022-07-30T23:25:29.873Z,85.9
2022-07-30T23:27:54.989Z,86
2022-07-30T23:30:21.075Z,86.4
2022-07-30T23:32:47.170Z,86.5
2022-07-30T23:35:13.268Z,86.6
2022-07-30T23:37:39.367Z,86.3
2022-07-30T23:40:05.467Z,85.7
2022-07-30T23:42:31.599Z,85.9
2022-07-30T23:44:56.675Z,86.5
2022-07-30T23:47:21.788Z,86.1
2022-07-30T23:49:46.897Z,86.4
2022-07-30T23:52:12.017Z,86.9
2022-07-30T23:54:37.145Z,86.6
2022-07-30T23:57:02.245Z,86.7
2022-07-30T23:59:27.638Z,87.4
